sensor_id;sensor_type;location;lat;lon;timestamp;P1;durP1;ratioP1;P2;durP2;ratioP2
80836;SDS011;70251;60.008;30.404;2023-10-19T00:00:47;4.93;;;0.70;;
80836;SDS011;70251;60.008;30.404;2023-10-19T00:03:19;2.30;;;0.40;;
80836;SDS011;70251;60.008;30.404;2023-10-19T00:05:45;2.33;;;0.40;;
80836;SDS011;70251;60.008;30.404;2023-10-19T00:08:12;2.45;;;0.40;;
80836;SDS011;70251;60.008;30.404;2023-10-19T00:10:39;2.40;;;0.40;;
80836;SDS011;70251;60.008;30.404;2023-10-19T00:13:08;2.92;;;0.40;;
80836;SDS011;70251;60.008;30.404;2023-10-19T00:15:37;2.40;;;0.35;;
80836;SDS011;70251;60.008;30.404;2023-10-19T00:18:17;2.33;;;0.30;;
80836;SDS011;70251;60.008;30.404;2023-10-19T00:20:44;2.58;;;0.40;;
80836;SDS011;70251;60.008;30.404;2023-10-19T00:23:11;2.60;;;0.60;;
80836;SDS011;70251;60.008;30.404;2023-10-19T00:25:44;2.97;;;0.50;;
80836;SDS011;70251;60.008;30.404;2023-10-19T00:28:18;3.38;;;0.40;;
80836;SDS011;70251;60.008;30.404;2023-10-19T00:30:44;3.27;;;0.33;;
80836;SDS011;70251;60.008;30.404;2023-10-19T00:33:11;3.17;;;0.40;;
80836;SDS011;70251;60.008;30.404;2023-10-19T00:35:45;4.80;;;0.57;;
80836;SDS011;70251;60.008;30.404;2023-10-19T00:38:13;6.28;;;0.52;;
80836;SDS011;70251;60.008;30.404;2023-10-19T00:41:15;3.78;;;0.40;;
80836;SDS011;70251;60.008;30.404;2023-10-19T00:43:49;2.67;;;0.33;;
80836;SDS011;70251;60.008;30.404;2023-10-19T00:46:20;2.63;;;0.35;;
80836;SDS011;70251;60.008;30.404;2023-10-19T00:48:55;2.15;;;0.35;;
80836;SDS011;70251;60.008;30.404;2023-10-19T00:51:27;1.80;;;0.20;;
80836;SDS011;70251;60.008;30.404;2023-10-19T00:53:57;1.77;;;0.30;;
80836;SDS011;70251;60.008;30.404;2023-10-19T00:56:29;4.03;;;0.73;;
80836;SDS011;70251;60.008;30.404;2023-10-19T00:58:58;1.80;;;0.30;;
80836;SDS011;70251;60.008;30.404;2023-10-19T01:01:41;3.35;;;0.30;;
80836;SDS011;70251;60.008;30.404;2023-10-19T01:04:18;2.47;;;0.30;;
80836;SDS011;70251;60.008;30.404;2023-10-19T01:06:57;3.30;;;0.50;;
80836;SDS011;70251;60.008;30.404;2023-10-19T01:09:28;4.60;;;0.60;;
80836;SDS011;70251;60.008;30.404;2023-10-19T01:11:54;2.70;;;0.30;;
80836;SDS011;70251;60.008;30.404;2023-10-19T01:14:23;2.33;;;0.40;;
80836;SDS011;70251;60.008;30.404;2023-10-19T01:16:56;1.93;;;0.20;;
80836;SDS011;70251;60.008;30.404;2023-10-19T01:19:24;4.03;;;0.70;;
80836;SDS011;70251;60.008;30.404;2023-10-19T01:21:52;1.83;;;0.28;;
80836;SDS011;70251;60.008;30.404;2023-10-19T01:24:29;2.05;;;0.20;;
80836;SDS011;70251;60.008;30.404;2023-10-19T01:27:21;1.88;;;0.30;;
80836;SDS011;70251;60.008;30.404;2023-10-19T01:29:47;3.00;;;0.40;;
80836;SDS011;70251;60.008;30.404;2023-10-19T01:32:13;2.95;;;0.40;;
80836;SDS011;70251;60.008;30.404;2023-10-19T01:34:40;1.90;;;0.20;;
80836;SDS011;70251;60.008;30.404;2023-10-19T01:37:06;3.00;;;0.37;;
80836;SDS011;70251;60.008;30.404;2023-10-19T01:39:32;1.95;;;0.40;;
80836;SDS011;70251;60.008;30.404;2023-10-19T01:42:00;1.87;;;0.30;;
80836;SDS011;70251;60.008;30.404;2023-10-19T01:44:27;1.85;;;0.30;;
80836;SDS011;70251;60.008;30.404;2023-10-19T01:46:52;3.83;;;0.20;;
80836;SDS011;70251;60.008;30.404;2023-10-19T01:49:18;1.80;;;0.20;;
80836;SDS011;70251;60.008;30.404;2023-10-19T01:51:52;2.58;;;0.38;;
80836;SDS011;70251;60.008;30.404;2023-10-19T01:54:20;3.20;;;0.50;;
80836;SDS011;70251;60.008;30.404;2023-10-19T01:56:51;2.00;;;0.30;;
80836;SDS011;70251;60.008;30.404;2023-10-19T01:59:24;2.17;;;0.30;;
80836;SDS011;70251;60.008;30.404;2023-10-19T02:01:56;1.52;;;0.20;;
80836;SDS011;70251;60.008;30.404;2023-10-19T02:04:22;1.92;;;0.28;;
80836;SDS011;70251;60.008;30.404;2023-10-19T02:06:49;1.98;;;0.20;;
80836;SDS011;70251;60.008;30.404;2023-10-19T02:09:17;1.38;;;0.20;;
80836;SDS011;70251;60.008;30.404;2023-10-19T02:11:52;2.70;;;0.37;;
80836;SDS011;70251;60.008;30.404;2023-10-19T02:14:21;2.65;;;0.30;;
80836;SDS011;70251;60.008;30.404;2023-10-19T02:16:51;2.08;;;0.40;;
80836;SDS011;70251;60.008;30.404;2023-10-19T02:19:19;1.60;;;0.22;;
80836;SDS011;70251;60.008;30.404;2023-10-19T02:21:47;2.95;;;0.50;;
80836;SDS011;70251;60.008;30.404;2023-10-19T02:24:13;1.30;;;0.20;;
80836;SDS011;70251;60.008;30.404;2023-10-19T02:26:43;3.35;;;0.40;;
80836;SDS011;70251;60.008;30.404;2023-10-19T02:29:10;2.60;;;0.50;;
80836;SDS011;70251;60.008;30.404;2023-10-19T02:31:38;2.95;;;0.43;;
80836;SDS011;70251;60.008;30.404;2023-10-19T02:34:06;2.63;;;0.50;;
80836;SDS011;70251;60.008;30.404;2023-10-19T02:36:34;2.20;;;0.40;;
80836;SDS011;70251;60.008;30.404;2023-10-19T02:39:09;6.40;;;0.40;;
80836;SDS011;70251;60.008;30.404;2023-10-19T02:44:07;2.22;;;0.30;;
80836;SDS011;70251;60.008;30.404;2023-10-19T02:46:44;2.47;;;0.40;;
80836;SDS011;70251;60.008;30.404;2023-10-19T02:49:11;2.47;;;0.50;;
80836;SDS011;70251;60.008;30.404;2023-10-19T02:51:45;1.98;;;0.38;;
80836;SDS011;70251;60.008;30.404;2023-10-19T02:54:12;3.38;;;0.57;;
80836;SDS011;70251;60.008;30.404;2023-10-19T02:56:50;2.40;;;0.50;;
80836;SDS011;70251;60.008;30.404;2023-10-19T02:59:22;2.92;;;0.50;;
80836;SDS011;70251;60.008;30.404;2023-10-19T03:01:52;2.67;;;0.60;;
80836;SDS011;70251;60.008;30.404;2023-10-19T03:04:26;3.17;;;0.75;;
80836;SDS011;70251;60.008;30.404;2023-10-19T03:06:54;3.17;;;0.70;;
80836;SDS011;70251;60.008;30.404;2023-10-19T03:09:24;3.88;;;0.88;;
80836;SDS011;70251;60.008;30.404;2023-10-19T03:11:50;2.80;;;0.50;;
80836;SDS011;70251;60.008;30.404;2023-10-19T03:14:20;2.58;;;0.70;;
80836;SDS011;70251;60.008;30.404;2023-10-19T03:16:50;4.30;;;0.80;;
80836;SDS011;70251;60.008;30.404;2023-10-19T03:19:16;2.85;;;0.50;;
80836;SDS011;70251;60.008;30.404;2023-10-19T03:21:42;2.37;;;0.40;;
80836;SDS011;70251;60.008;30.404;2023-10-19T03:24:15;2.40;;;0.55;;
80836;SDS011;70251;60.008;30.404;2023-10-19T03:27:00;3.25;;;0.57;;
80836;SDS011;70251;60.008;30.404;2023-10-19T03:29:26;2.83;;;0.57;;
80836;SDS011;70251;60.008;30.404;2023-10-19T03:31:57;3.83;;;0.70;;
80836;SDS011;70251;60.008;30.404;2023-10-19T03:34:24;2.45;;;0.52;;
80836;SDS011;70251;60.008;30.404;2023-10-19T03:36:57;2.78;;;0.50;;
80836;SDS011;70251;60.008;30.404;2023-10-19T03:39:27;3.70;;;0.52;;
80836;SDS011;70251;60.008;30.404;2023-10-19T03:41:53;2.20;;;0.40;;
80836;SDS011;70251;60.008;30.404;2023-10-19T03:44:18;2.25;;;0.50;;
80836;SDS011;70251;60.008;30.404;2023-10-19T03:46:52;1.73;;;0.40;;
80836;SDS011;70251;60.008;30.404;2023-10-19T03:49:36;2.20;;;0.40;;
80836;SDS011;70251;60.008;30.404;2023-10-19T03:52:04;2.40;;;0.38;;
80836;SDS011;70251;60.008;30.404;2023-10-19T03:54:36;2.50;;;0.50;;
80836;SDS011;70251;60.008;30.404;2023-10-19T03:57:06;2.45;;;0.55;;
80836;SDS011;70251;60.008;30.404;2023-10-19T03:59:40;2.60;;;0.50;;
80836;SDS011;70251;60.008;30.404;2023-10-19T04:02:06;2.33;;;0.50;;
80836;SDS011;70251;60.008;30.404;2023-10-19T04:04:48;3.50;;;0.60;;
80836;SDS011;70251;60.008;30.404;2023-10-19T04:07:14;4.25;;;1.00;;
80836;SDS011;70251;60.008;30.404;2023-10-19T04:09:48;3.47;;;0.85;;
80836;SDS011;70251;60.008;30.404;2023-10-19T04:12:30;3.58;;;0.75;;
80836;SDS011;70251;60.008;30.404;2023-10-19T04:14:56;4.03;;;0.90;;
80836;SDS011;70251;60.008;30.404;2023-10-19T04:17:23;3.65;;;0.93;;
80836;SDS011;70251;60.008;30.404;2023-10-19T04:19:49;4.35;;;0.80;;
80836;SDS011;70251;60.008;30.404;2023-10-19T04:22:20;3.45;;;0.93;;
80836;SDS011;70251;60.008;30.404;2023-10-19T04:24:51;4.15;;;1.08;;
80836;SDS011;70251;60.008;30.404;2023-10-19T04:27:17;4.37;;;0.90;;
80836;SDS011;70251;60.008;30.404;2023-10-19T04:29:47;3.20;;;0.60;;
80836;SDS011;70251;60.008;30.404;2023-10-19T04:32:15;3.88;;;0.90;;
80836;SDS011;70251;60.008;30.404;2023-10-19T04:34:48;4.35;;;1.13;;
80836;SDS011;70251;60.008;30.404;2023-10-19T04:37:14;3.90;;;1.00;;
80836;SDS011;70251;60.008;30.404;2023-10-19T04:39:43;4.53;;;0.98;;
80836;SDS011;70251;60.008;30.404;2023-10-19T04:42:09;3.47;;;0.80;;
80836;SDS011;70251;60.008;30.404;2023-10-19T04:44:35;3.50;;;1.00;;
80836;SDS011;70251;60.008;30.404;2023-10-19T04:47:00;3.57;;;0.83;;
80836;SDS011;70251;60.008;30.404;2023-10-19T04:49:26;4.20;;;1.10;;
80836;SDS011;70251;60.008;30.404;2023-10-19T04:51:53;5.13;;;1.42;;
80836;SDS011;70251;60.008;30.404;2023-10-19T04:54:19;5.97;;;1.10;;
80836;SDS011;70251;60.008;30.404;2023-10-19T04:56:56;4.85;;;1.30;;
80836;SDS011;70251;60.008;30.404;2023-10-19T04:59:22;3.08;;;0.90;;
80836;SDS011;70251;60.008;30.404;2023-10-19T05:01:47;2.73;;;0.70;;
80836;SDS011;70251;60.008;30.404;2023-10-19T05:04:16;3.40;;;0.80;;
80836;SDS011;70251;60.008;30.404;2023-10-19T05:06:42;6.05;;;0.80;;
80836;SDS011;70251;60.008;30.404;2023-10-19T05:09:08;4.87;;;1.30;;
80836;SDS011;70251;60.008;30.404;2023-10-19T05:11:34;4.90;;;0.95;;
80836;SDS011;70251;60.008;30.404;2023-10-19T05:14:00;4.27;;;0.80;;
80836;SDS011;70251;60.008;30.404;2023-10-19T05:16:28;2.70;;;0.70;;
80836;SDS011;70251;60.008;30.404;2023-10-19T05:18:54;3.23;;;0.50;;
80836;SDS011;70251;60.008;30.404;2023-10-19T05:21:19;3.33;;;0.85;;
80836;SDS011;70251;60.008;30.404;2023-10-19T05:23:45;3.80;;;0.53;;
80836;SDS011;70251;60.008;30.404;2023-10-19T05:26:10;3.30;;;0.70;;
80836;SDS011;70251;60.008;30.404;2023-10-19T05:28:38;2.72;;;0.70;;
80836;SDS011;70251;60.008;30.404;2023-10-19T05:31:03;4.03;;;0.70;;
80836;SDS011;70251;60.008;30.404;2023-10-19T05:33:29;3.07;;;0.60;;
80836;SDS011;70251;60.008;30.404;2023-10-19T05:35:55;2.53;;;0.50;;
80836;SDS011;70251;60.008;30.404;2023-10-19T05:38:20;5.17;;;0.70;;
80836;SDS011;70251;60.008;30.404;2023-10-19T05:40:47;2.45;;;0.55;;
80836;SDS011;70251;60.008;30.404;2023-10-19T05:43:15;3.27;;;0.47;;
80836;SDS011;70251;60.008;30.404;2023-10-19T05:45:41;3.00;;;0.50;;
80836;SDS011;70251;60.008;30.404;2023-10-19T05:48:06;2.90;;;0.60;;
80836;SDS011;70251;60.008;30.404;2023-10-19T05:50:35;5.70;;;1.30;;
80836;SDS011;70251;60.008;30.404;2023-10-19T05:53:02;3.00;;;0.60;;
80836;SDS011;70251;60.008;30.404;2023-10-19T05:55:29;3.28;;;0.80;;
80836;SDS011;70251;60.008;30.404;2023-10-19T05:57:55;2.22;;;0.40;;
80836;SDS011;70251;60.008;30.404;2023-10-19T06:00:21;3.47;;;0.90;;
80836;SDS011;70251;60.008;30.404;2023-10-19T06:02:50;3.38;;;0.70;;
80836;SDS011;70251;60.008;30.404;2023-10-19T06:05:16;3.33;;;0.60;;
80836;SDS011;70251;60.008;30.404;2023-10-19T06:07:43;2.65;;;0.60;;
80836;SDS011;70251;60.008;30.404;2023-10-19T06:10:16;3.20;;;0.70;;
80836;SDS011;70251;60.008;30.404;2023-10-19T06:12:46;2.80;;;0.55;;
80836;SDS011;70251;60.008;30.404;2023-10-19T06:15:16;5.45;;;0.80;;
80836;SDS011;70251;60.008;30.404;2023-10-19T06:17:43;5.97;;;2.13;;
80836;SDS011;70251;60.008;30.404;2023-10-19T06:20:11;7.55;;;1.50;;
80836;SDS011;70251;60.008;30.404;2023-10-19T06:22:57;5.68;;;0.88;;
80836;SDS011;70251;60.008;30.404;2023-10-19T06:25:29;2.25;;;0.40;;
80836;SDS011;70251;60.008;30.404;2023-10-19T06:27:55;3.95;;;0.98;;
80836;SDS011;70251;60.008;30.404;2023-10-19T06:30:22;5.67;;;1.10;;
80836;SDS011;70251;60.008;30.404;2023-10-19T06:32:49;3.95;;;0.80;;
80836;SDS011;70251;60.008;30.404;2023-10-19T06:35:16;4.05;;;0.85;;
80836;SDS011;70251;60.008;30.404;2023-10-19T06:37:43;4.35;;;1.00;;
80836;SDS011;70251;60.008;30.404;2023-10-19T06:40:10;6.38;;;1.15;;
80836;SDS011;70251;60.008;30.404;2023-10-19T06:42:46;3.90;;;0.90;;
80836;SDS011;70251;60.008;30.404;2023-10-19T06:45:12;4.13;;;0.95;;
80836;SDS011;70251;60.008;30.404;2023-10-19T06:47:46;5.28;;;1.10;;
80836;SDS011;70251;60.008;30.404;2023-10-19T06:50:13;3.80;;;0.80;;
80836;SDS011;70251;60.008;30.404;2023-10-19T06:52:41;4.50;;;1.08;;
80836;SDS011;70251;60.008;30.404;2023-10-19T06:55:09;5.70;;;1.03;;
80836;SDS011;70251;60.008;30.404;2023-10-19T06:57:40;5.22;;;1.23;;
80836;SDS011;70251;60.008;30.404;2023-10-19T07:00:09;4.47;;;1.05;;
80836;SDS011;70251;60.008;30.404;2023-10-19T07:02:45;5.32;;;1.30;;
80836;SDS011;70251;60.008;30.404;2023-10-19T07:05:12;6.03;;;1.35;;
80836;SDS011;70251;60.008;30.404;2023-10-19T07:07:40;4.70;;;1.13;;
80836;SDS011;70251;60.008;30.404;2023-10-19T07:10:07;4.47;;;1.13;;
80836;SDS011;70251;60.008;30.404;2023-10-19T07:12:35;3.63;;;0.90;;
80836;SDS011;70251;60.008;30.404;2023-10-19T07:15:03;5.57;;;1.10;;
80836;SDS011;70251;60.008;30.404;2023-10-19T07:17:40;6.50;;;1.42;;
80836;SDS011;70251;60.008;30.404;2023-10-19T07:20:09;5.43;;;0.90;;
80836;SDS011;70251;60.008;30.404;2023-10-19T07:22:59;4.43;;;1.65;;
80836;SDS011;70251;60.008;30.404;2023-10-19T07:25:35;3.53;;;0.77;;
80836;SDS011;70251;60.008;30.404;2023-10-19T07:28:13;4.55;;;1.17;;
80836;SDS011;70251;60.008;30.404;2023-10-19T07:30:40;3.70;;;0.70;;
80836;SDS011;70251;60.008;30.404;2023-10-19T07:33:12;3.47;;;0.80;;
80836;SDS011;70251;60.008;30.404;2023-10-19T07:35:47;6.07;;;0.90;;
80836;SDS011;70251;60.008;30.404;2023-10-19T07:38:25;4.28;;;0.88;;
80836;SDS011;70251;60.008;30.404;2023-10-19T07:40:58;4.10;;;0.80;;
80836;SDS011;70251;60.008;30.404;2023-10-19T07:43:26;3.80;;;0.90;;
80836;SDS011;70251;60.008;30.404;2023-10-19T07:45:51;4.47;;;1.00;;
80836;SDS011;70251;60.008;30.404;2023-10-19T07:48:17;4.07;;;0.90;;
80836;SDS011;70251;60.008;30.404;2023-10-19T07:50:43;4.20;;;0.70;;
80836;SDS011;70251;60.008;30.404;2023-10-19T07:53:08;3.20;;;0.80;;
80836;SDS011;70251;60.008;30.404;2023-10-19T07:55:35;3.40;;;0.70;;
80836;SDS011;70251;60.008;30.404;2023-10-19T07:58:01;2.65;;;0.50;;
80836;SDS011;70251;60.008;30.404;2023-10-19T08:00:32;3.35;;;0.60;;
80836;SDS011;70251;60.008;30.404;2023-10-19T08:03:02;4.15;;;0.60;;
80836;SDS011;70251;60.008;30.404;2023-10-19T08:05:29;3.97;;;0.50;;
80836;SDS011;70251;60.008;30.404;2023-10-19T08:07:55;2.80;;;0.50;;
80836;SDS011;70251;60.008;30.404;2023-10-19T08:10:22;3.22;;;0.73;;
80836;SDS011;70251;60.008;30.404;2023-10-19T08:12:48;2.67;;;0.37;;
80836;SDS011;70251;60.008;30.404;2023-10-19T08:15:15;2.35;;;0.50;;
80836;SDS011;70251;60.008;30.404;2023-10-19T08:17:42;2.90;;;0.40;;
80836;SDS011;70251;60.008;30.404;2023-10-19T08:20:11;2.20;;;0.30;;
80836;SDS011;70251;60.008;30.404;2023-10-19T08:22:53;1.57;;;0.30;;
80836;SDS011;70251;60.008;30.404;2023-10-19T08:25:23;3.70;;;0.52;;
80836;SDS011;70251;60.008;30.404;2023-10-19T08:27:53;2.72;;;0.50;;
80836;SDS011;70251;60.008;30.404;2023-10-19T08:30:23;2.20;;;0.43;;
80836;SDS011;70251;60.008;30.404;2023-10-19T08:32:48;3.10;;;0.50;;
80836;SDS011;70251;60.008;30.404;2023-10-19T08:35:17;2.00;;;0.30;;
80836;SDS011;70251;60.008;30.404;2023-10-19T08:37:48;3.05;;;0.60;;
80836;SDS011;70251;60.008;30.404;2023-10-19T08:40:15;3.97;;;0.47;;
80836;SDS011;70251;60.008;30.404;2023-10-19T08:42:48;2.80;;;0.32;;
80836;SDS011;70251;60.008;30.404;2023-10-19T08:45:14;3.60;;;0.40;;
80836;SDS011;70251;60.008;30.404;2023-10-19T08:47:44;2.30;;;0.43;;
80836;SDS011;70251;60.008;30.404;2023-10-19T08:50:15;1.73;;;0.30;;
80836;SDS011;70251;60.008;30.404;2023-10-19T08:52:48;2.35;;;0.30;;
80836;SDS011;70251;60.008;30.404;2023-10-19T08:55:20;1.50;;;0.17;;
80836;SDS011;70251;60.008;30.404;2023-10-19T08:57:47;1.50;;;0.20;;
80836;SDS011;70251;60.008;30.404;2023-10-19T09:00:15;2.55;;;0.30;;
80836;SDS011;70251;60.008;30.404;2023-10-19T09:02:45;1.92;;;0.30;;
80836;SDS011;70251;60.008;30.404;2023-10-19T09:05:11;1.73;;;0.20;;
80836;SDS011;70251;60.008;30.404;2023-10-19T09:07:48;1.65;;;0.20;;
80836;SDS011;70251;60.008;30.404;2023-10-19T09:13:04;2.08;;;0.35;;
80836;SDS011;70251;60.008;30.404;2023-10-19T09:15:35;2.50;;;0.25;;
80836;SDS011;70251;60.008;30.404;2023-10-19T09:18:23;1.65;;;0.30;;
80836;SDS011;70251;60.008;30.404;2023-10-19T09:20:50;1.67;;;0.28;;
80836;SDS011;70251;60.008;30.404;2023-10-19T09:23:21;7.50;;;0.30;;
80836;SDS011;70251;60.008;30.404;2023-10-19T09:25:52;1.30;;;0.20;;
80836;SDS011;70251;60.008;30.404;2023-10-19T09:28:19;1.50;;;0.20;;
80836;SDS011;70251;60.008;30.404;2023-10-19T09:30:45;1.48;;;0.25;;
80836;SDS011;70251;60.008;30.404;2023-10-19T09:33:14;2.75;;;0.10;;
80836;SDS011;70251;60.008;30.404;2023-10-19T09:35:46;1.90;;;0.20;;
80836;SDS011;70251;60.008;30.404;2023-10-19T09:38:17;2.70;;;0.20;;
80836;SDS011;70251;60.008;30.404;2023-10-19T09:40:53;1.08;;;0.10;;
80836;SDS011;70251;60.008;30.404;2023-10-19T09:46:00;2.60;;;0.20;;
80836;SDS011;70251;60.008;30.404;2023-10-19T09:48:31;1.10;;;0.40;;
80836;SDS011;70251;60.008;30.404;2023-10-19T09:51:02;1.48;;;0.20;;
80836;SDS011;70251;60.008;30.404;2023-10-19T09:53:28;1.02;;;0.20;;
80836;SDS011;70251;60.008;30.404;2023-10-19T09:55:59;1.50;;;0.15;;
80836;SDS011;70251;60.008;30.404;2023-10-19T09:58:29;1.77;;;0.13;;
80836;SDS011;70251;60.008;30.404;2023-10-19T10:01:03;1.80;;;0.30;;
80836;SDS011;70251;60.008;30.404;2023-10-19T10:06:15;1.58;;;0.20;;
80836;SDS011;70251;60.008;30.404;2023-10-19T10:08:47;2.05;;;0.30;;
80836;SDS011;70251;60.008;30.404;2023-10-19T10:13:43;3.63;;;0.23;;
80836;SDS011;70251;60.008;30.404;2023-10-19T10:16:19;2.42;;;0.20;;
80836;SDS011;70251;60.008;30.404;2023-10-19T10:18:54;1.55;;;0.10;;
80836;SDS011;70251;60.008;30.404;2023-10-19T10:21:27;1.73;;;0.25;;
80836;SDS011;70251;60.008;30.404;2023-10-19T10:26:30;2.63;;;0.10;;
80836;SDS011;70251;60.008;30.404;2023-10-19T10:29:22;1.65;;;0.10;;
80836;SDS011;70251;60.008;30.404;2023-10-19T10:31:53;1.40;;;0.10;;
80836;SDS011;70251;60.008;30.404;2023-10-19T10:37:06;4.32;;;0.17;;
80836;SDS011;70251;60.008;30.404;2023-10-19T10:39:37;2.85;;;0.20;;
80836;SDS011;70251;60.008;30.404;2023-10-19T10:42:05;1.73;;;0.10;;
80836;SDS011;70251;60.008;30.404;2023-10-19T10:44:47;2.38;;;0.10;;
80836;SDS011;70251;60.008;30.404;2023-10-19T10:47:19;0.70;;;0.10;;
80836;SDS011;70251;60.008;30.404;2023-10-19T10:49:50;1.00;;;0.10;;
80836;SDS011;70251;60.008;30.404;2023-10-19T10:54:55;0.82;;;0.03;;
80836;SDS011;70251;60.008;30.404;2023-10-19T10:57:21;0.35;;;0.05;;
80836;SDS011;70251;60.008;30.404;2023-10-19T11:00:10;1.17;;;0.10;;
80836;SDS011;70251;60.008;30.404;2023-10-19T11:02:41;1.58;;;0.20;;
80836;SDS011;70251;60.008;30.404;2023-10-19T11:05:16;1.10;;;0.10;;
80836;SDS011;70251;60.008;30.404;2023-10-19T11:10:31;1.23;;;0.10;;
80836;SDS011;70251;60.008;30.404;2023-10-19T11:15:53;0.77;;;0.10;;
80836;SDS011;70251;60.008;30.404;2023-10-19T11:18:31;2.28;;;0.20;;
80836;SDS011;70251;60.008;30.404;2023-10-19T11:21:17;2.00;;;0.20;;
80836;SDS011;70251;60.008;30.404;2023-10-19T11:23:46;3.47;;;0.10;;
80836;SDS011;70251;60.008;30.404;2023-10-19T11:26:13;1.30;;;0.10;;
80836;SDS011;70251;60.008;30.404;2023-10-19T11:28:41;0.85;;;0.10;;
80836;SDS011;70251;60.008;30.404;2023-10-19T11:31:19;0.50;;;0.10;;
80836;SDS011;70251;60.008;30.404;2023-10-19T11:33:50;1.45;;;0.10;;
80836;SDS011;70251;60.008;30.404;2023-10-19T11:36:19;0.68;;;0.10;;
80836;SDS011;70251;60.008;30.404;2023-10-19T11:38:46;2.03;;;0.10;;
80836;SDS011;70251;60.008;30.404;2023-10-19T11:41:13;1.65;;;0.10;;
80836;SDS011;70251;60.008;30.404;2023-10-19T11:43:39;1.42;;;0.10;;
80836;SDS011;70251;60.008;30.404;2023-10-19T11:46:06;0.40;;;0.00;;
80836;SDS011;70251;60.008;30.404;2023-10-19T11:48:33;0.35;;;0.00;;
80836;SDS011;70251;60.008;30.404;2023-10-19T11:51:01;0.77;;;0.10;;
80836;SDS011;70251;60.008;30.404;2023-10-19T11:53:34;0.65;;;0.00;;
80836;SDS011;70251;60.008;30.404;2023-10-19T11:56:08;0.90;;;0.00;;
80836;SDS011;70251;60.008;30.404;2023-10-19T11:58:36;1.25;;;0.10;;
80836;SDS011;70251;60.008;30.404;2023-10-19T12:01:10;1.63;;;0.20;;
80836;SDS011;70251;60.008;30.404;2023-10-19T12:03:39;1.17;;;0.10;;
80836;SDS011;70251;60.008;30.404;2023-10-19T12:06:06;0.75;;;0.00;;
80836;SDS011;70251;60.008;30.404;2023-10-19T12:08:36;0.47;;;0.00;;
80836;SDS011;70251;60.008;30.404;2023-10-19T12:11:04;0.70;;;0.10;;
80836;SDS011;70251;60.008;30.404;2023-10-19T12:13:40;0.30;;;0.00;;
80836;SDS011;70251;60.008;30.404;2023-10-19T12:16:08;2.80;;;0.13;;
80836;SDS011;70251;60.008;30.404;2023-10-19T12:18:45;1.25;;;0.00;;
80836;SDS011;70251;60.008;30.404;2023-10-19T12:21:11;0.75;;;0.00;;
80836;SDS011;70251;60.008;30.404;2023-10-19T12:23:41;1.33;;;0.10;;
80836;SDS011;70251;60.008;30.404;2023-10-19T12:26:10;0.43;;;0.00;;
80836;SDS011;70251;60.008;30.404;2023-10-19T12:28:40;3.57;;;0.00;;
80836;SDS011;70251;60.008;30.404;2023-10-19T12:31:08;1.30;;;0.10;;
80836;SDS011;70251;60.008;30.404;2023-10-19T12:33:43;0.80;;;0.03;;
80836;SDS011;70251;60.008;30.404;2023-10-19T12:36:11;1.83;;;0.20;;
80836;SDS011;70251;60.008;30.404;2023-10-19T12:38:52;2.45;;;0.10;;
80836;SDS011;70251;60.008;30.404;2023-10-19T12:41:19;0.60;;;0.10;;
80836;SDS011;70251;60.008;30.404;2023-10-19T12:43:46;0.95;;;0.10;;
80836;SDS011;70251;60.008;30.404;2023-10-19T12:46:13;0.90;;;0.10;;
80836;SDS011;70251;60.008;30.404;2023-10-19T12:48:42;2.13;;;0.10;;
80836;SDS011;70251;60.008;30.404;2023-10-19T12:51:08;0.73;;;0.00;;
80836;SDS011;70251;60.008;30.404;2023-10-19T12:53:37;0.67;;;0.00;;
80836;SDS011;70251;60.008;30.404;2023-10-19T12:56:06;1.42;;;0.10;;
80836;SDS011;70251;60.008;30.404;2023-10-19T12:58:33;1.23;;;0.10;;
80836;SDS011;70251;60.008;30.404;2023-10-19T13:00:59;1.37;;;0.00;;
80836;SDS011;70251;60.008;30.404;2023-10-19T13:03:24;0.32;;;0.00;;
80836;SDS011;70251;60.008;30.404;2023-10-19T13:05:56;1.40;;;0.03;;
80836;SDS011;70251;60.008;30.404;2023-10-19T13:08:29;1.30;;;0.00;;
80836;SDS011;70251;60.008;30.404;2023-10-19T13:10:54;0.55;;;0.00;;
80836;SDS011;70251;60.008;30.404;2023-10-19T13:13:20;1.15;;;0.00;;
80836;SDS011;70251;60.008;30.404;2023-10-19T13:15:50;0.33;;;0.00;;
80836;SDS011;70251;60.008;30.404;2023-10-19T13:18:31;0.77;;;0.00;;
80836;SDS011;70251;60.008;30.404;2023-10-19T13:20:59;0.35;;;0.00;;
80836;SDS011;70251;60.008;30.404;2023-10-19T13:23:34;1.58;;;0.00;;
80836;SDS011;70251;60.008;30.404;2023-10-19T13:26:01;3.33;;;0.10;;
80836;SDS011;70251;60.008;30.404;2023-10-19T13:28:33;1.03;;;0.00;;
80836;SDS011;70251;60.008;30.404;2023-10-19T13:31:03;0.65;;;0.00;;
80836;SDS011;70251;60.008;30.404;2023-10-19T13:33:29;0.88;;;0.03;;
80836;SDS011;70251;60.008;30.404;2023-10-19T13:35:55;0.50;;;0.00;;
80836;SDS011;70251;60.008;30.404;2023-10-19T13:38:21;6.18;;;1.75;;
80836;SDS011;70251;60.008;30.404;2023-10-19T13:40:46;3.63;;;0.30;;
80836;SDS011;70251;60.008;30.404;2023-10-19T13:43:16;1.83;;;0.10;;
80836;SDS011;70251;60.008;30.404;2023-10-19T13:46:06;0.90;;;0.00;;
80836;SDS011;70251;60.008;30.404;2023-10-19T13:48:32;0.70;;;0.00;;
80836;SDS011;70251;60.008;30.404;2023-10-19T13:51:00;1.50;;;0.10;;
80836;SDS011;70251;60.008;30.404;2023-10-19T13:53:26;0.88;;;0.10;;
80836;SDS011;70251;60.008;30.404;2023-10-19T13:55:53;1.13;;;0.10;;
80836;SDS011;70251;60.008;30.404;2023-10-19T13:58:18;2.10;;;0.10;;
80836;SDS011;70251;60.008;30.404;2023-10-19T14:00:44;3.22;;;0.10;;
80836;SDS011;70251;60.008;30.404;2023-10-19T14:03:11;0.98;;;0.00;;
80836;SDS011;70251;60.008;30.404;2023-10-19T14:05:42;1.07;;;0.10;;
80836;SDS011;70251;60.008;30.404;2023-10-19T14:08:13;1.35;;;0.00;;
80836;SDS011;70251;60.008;30.404;2023-10-19T14:10:39;1.40;;;0.10;;
80836;SDS011;70251;60.008;30.404;2023-10-19T14:13:08;1.98;;;0.10;;
80836;SDS011;70251;60.008;30.404;2023-10-19T14:15:36;1.95;;;0.10;;
80836;SDS011;70251;60.008;30.404;2023-10-19T14:18:06;4.53;;;0.20;;
80836;SDS011;70251;60.008;30.404;2023-10-19T14:20:31;4.28;;;0.82;;
80836;SDS011;70251;60.008;30.404;2023-10-19T14:23:02;1.77;;;0.22;;
80836;SDS011;70251;60.008;30.404;2023-10-19T14:25:30;1.67;;;0.20;;
80836;SDS011;70251;60.008;30.404;2023-10-19T14:27:56;1.98;;;0.10;;
80836;SDS011;70251;60.008;30.404;2023-10-19T14:30:33;2.20;;;0.10;;
80836;SDS011;70251;60.008;30.404;2023-10-19T14:33:02;1.70;;;0.10;;
80836;SDS011;70251;60.008;30.404;2023-10-19T14:35:28;1.33;;;0.20;;
80836;SDS011;70251;60.008;30.404;2023-10-19T14:37:54;2.27;;;0.20;;
80836;SDS011;70251;60.008;30.404;2023-10-19T14:40:22;1.73;;;0.10;;
80836;SDS011;70251;60.008;30.404;2023-10-19T14:42:51;1.40;;;0.10;;
80836;SDS011;70251;60.008;30.404;2023-10-19T14:45:19;5.45;;;0.70;;
80836;SDS011;70251;60.008;30.404;2023-10-19T14:47:49;5.68;;;0.38;;
80836;SDS011;70251;60.008;30.404;2023-10-19T14:50:25;2.87;;;0.10;;
80836;SDS011;70251;60.008;30.404;2023-10-19T14:52:54;3.70;;;0.20;;
80836;SDS011;70251;60.008;30.404;2023-10-19T14:55:20;2.40;;;0.20;;
80836;SDS011;70251;60.008;30.404;2023-10-19T14:57:47;3.22;;;0.22;;
80836;SDS011;70251;60.008;30.404;2023-10-19T15:00:15;1.23;;;0.10;;
80836;SDS011;70251;60.008;30.404;2023-10-19T15:02:56;3.57;;;0.20;;
80836;SDS011;70251;60.008;30.404;2023-10-19T15:05:26;1.27;;;0.10;;
80836;SDS011;70251;60.008;30.404;2023-10-19T15:07:53;2.08;;;0.10;;
80836;SDS011;70251;60.008;30.404;2023-10-19T15:10:25;2.55;;;0.17;;
80836;SDS011;70251;60.008;30.404;2023-10-19T15:12:53;2.25;;;0.17;;
80836;SDS011;70251;60.008;30.404;2023-10-19T15:15:21;2.43;;;0.30;;